sensor_id;sensor_type;location;lat;lon;timestamp;P1;durP1;ratioP1;P2;durP2;ratioP2
37477;SDS011;23334;54.316;10.182;2022-08-25T00:01:14;8.53;;;4.90;;
37477;SDS011;23334;54.316;10.182;2022-08-25T00:03:43;8.03;;;4.40;;
37477;SDS011;23334;54.316;10.182;2022-08-25T00:06:09;10.87;;;3.77;;
37477;SDS011;23334;54.316;10.182;2022-08-25T00:08:35;6.07;;;4.37;;
37477;SDS011;23334;54.316;10.182;2022-08-25T00:11:03;5.43;;;4.70;;
37477;SDS011;23334;54.316;10.182;2022-08-25T00:13:30;9.23;;;4.63;;
37477;SDS011;23334;54.316;10.182;2022-08-25T00:15:56;6.30;;;5.10;;
37477;SDS011;23334;54.316;10.182;2022-08-25T00:18:22;7.80;;;4.70;;
37477;SDS011;23334;54.316;10.182;2022-08-25T00:20:48;5.80;;;4.77;;
37477;SDS011;23334;54.316;10.182;2022-08-25T00:23:14;7.57;;;4.83;;
37477;SDS011;23334;54.316;10.182;2022-08-25T00:25:39;4.70;;;4.10;;
37477;SDS011;23334;54.316;10.182;2022-08-25T00:28:05;6.70;;;4.80;;
37477;SDS011;23334;54.316;10.182;2022-08-25T00:30:30;9.20;;;4.73;;
37477;SDS011;23334;54.316;10.182;2022-08-25T00:32:56;6.20;;;4.60;;
37477;SDS011;23334;54.316;10.182;2022-08-25T00:35:22;7.33;;;5.30;;
37477;SDS011;23334;54.316;10.182;2022-08-25T00:37:48;5.80;;;5.20;;
37477;SDS011;23334;54.316;10.182;2022-08-25T00:40:14;5.90;;;4.10;;
37477;SDS011;23334;54.316;10.182;2022-08-25T00:42:40;5.83;;;4.97;;
37477;SDS011;23334;54.316;10.182;2022-08-25T00:45:06;5.03;;;4.63;;
37477;SDS011;23334;54.316;10.182;2022-08-25T00:47:33;6.63;;;4.23;;
37477;SDS011;23334;54.316;10.182;2022-08-25T00:50:00;6.33;;;4.50;;
37477;SDS011;23334;54.316;10.182;2022-08-25T00:52:38;5.40;;;4.87;;
37477;SDS011;23334;54.316;10.182;2022-08-25T00:55:12;8.73;;;5.00;;
37477;SDS011;23334;54.316;10.182;2022-08-25T00:57:42;7.87;;;5.20;;
37477;SDS011;23334;54.316;10.182;2022-08-25T01:00:36;7.33;;;5.17;;
37477;SDS011;23334;54.316;10.182;2022-08-25T01:03:02;6.97;;;6.37;;
37477;SDS011;23334;54.316;10.182;2022-08-25T01:05:28;12.80;;;4.63;;
37477;SDS011;23334;54.316;10.182;2022-08-25T01:07:57;10.63;;;5.80;;
37477;SDS011;23334;54.316;10.182;2022-08-25T01:10:26;6.80;;;4.53;;
37477;SDS011;23334;54.316;10.182;2022-08-25T01:12:52;9.60;;;5.60;;
37477;SDS011;23334;54.316;10.182;2022-08-25T01:15:23;7.90;;;4.80;;
37477;SDS011;23334;54.316;10.182;2022-08-25T01:17:53;13.30;;;6.33;;
37477;SDS011;23334;54.316;10.182;2022-08-25T01:20:21;10.67;;;5.53;;
37477;SDS011;23334;54.316;10.182;2022-08-25T01:22:49;5.87;;;5.37;;
37477;SDS011;23334;54.316;10.182;2022-08-25T01:25:32;8.23;;;6.00;;
37477;SDS011;23334;54.316;10.182;2022-08-25T01:28:01;8.60;;;5.03;;
37477;SDS011;23334;54.316;10.182;2022-08-25T01:30:27;8.50;;;6.40;;
37477;SDS011;23334;54.316;10.182;2022-08-25T01:32:53;8.10;;;5.13;;
37477;SDS011;23334;54.316;10.182;2022-08-25T01:35:19;12.10;;;6.00;;
37477;SDS011;23334;54.316;10.182;2022-08-25T01:37:44;8.23;;;5.90;;
37477;SDS011;23334;54.316;10.182;2022-08-25T01:40:11;7.40;;;5.87;;
37477;SDS011;23334;54.316;10.182;2022-08-25T01:45:25;5.93;;;5.33;;
37477;SDS011;23334;54.316;10.182;2022-08-25T01:47:51;10.07;;;5.93;;
37477;SDS011;23334;54.316;10.182;2022-08-25T01:50:17;10.63;;;6.07;;
37477;SDS011;23334;54.316;10.182;2022-08-25T01:52:50;8.40;;;5.30;;
37477;SDS011;23334;54.316;10.182;2022-08-25T01:55:20;7.97;;;5.67;;
37477;SDS011;23334;54.316;10.182;2022-08-25T01:57:45;6.13;;;5.57;;
37477;SDS011;23334;54.316;10.182;2022-08-25T02:00:12;6.30;;;5.70;;
37477;SDS011;23334;54.316;10.182;2022-08-25T02:02:39;9.70;;;5.60;;
37477;SDS011;23334;54.316;10.182;2022-08-25T02:05:06;6.23;;;5.37;;
37477;SDS011;23334;54.316;10.182;2022-08-25T02:07:33;11.03;;;6.10;;
37477;SDS011;23334;54.316;10.182;2022-08-25T02:09:59;8.63;;;5.80;;
37477;SDS011;23334;54.316;10.182;2022-08-25T02:12:28;7.93;;;5.60;;
37477;SDS011;23334;54.316;10.182;2022-08-25T02:14:55;6.47;;;5.50;;
37477;SDS011;23334;54.316;10.182;2022-08-25T02:17:21;6.00;;;5.50;;
37477;SDS011;23334;54.316;10.182;2022-08-25T02:19:47;6.80;;;5.60;;
37477;SDS011;23334;54.316;10.182;2022-08-25T02:22:12;10.27;;;6.63;;
37477;SDS011;23334;54.316;10.182;2022-08-25T02:24:38;8.93;;;5.60;;
37477;SDS011;23334;54.316;10.182;2022-08-25T02:27:03;6.20;;;5.07;;
37477;SDS011;23334;54.316;10.182;2022-08-25T02:29:29;16.30;;;6.70;;
37477;SDS011;23334;54.316;10.182;2022-08-25T02:31:55;6.63;;;5.47;;
37477;SDS011;23334;54.316;10.182;2022-08-25T02:34:20;7.53;;;5.10;;
37477;SDS011;23334;54.316;10.182;2022-08-25T02:36:47;7.63;;;6.10;;
37477;SDS011;23334;54.316;10.182;2022-08-25T02:39:12;6.57;;;5.90;;
37477;SDS011;23334;54.316;10.182;2022-08-25T02:41:38;6.30;;;5.70;;
37477;SDS011;23334;54.316;10.182;2022-08-25T02:44:05;6.77;;;6.17;;
37477;SDS011;23334;54.316;10.182;2022-08-25T02:46:32;6.97;;;6.00;;
37477;SDS011;23334;54.316;10.182;2022-08-25T02:48:57;7.83;;;5.77;;
37477;SDS011;23334;54.316;10.182;2022-08-25T02:51:23;7.73;;;5.73;;
37477;SDS011;23334;54.316;10.182;2022-08-25T02:53:50;8.87;;;5.90;;
37477;SDS011;23334;54.316;10.182;2022-08-25T02:56:16;7.77;;;6.30;;
37477;SDS011;23334;54.316;10.182;2022-08-25T02:58:43;12.33;;;5.67;;
37477;SDS011;23334;54.316;10.182;2022-08-25T03:01:10;9.10;;;5.50;;
37477;SDS011;23334;54.316;10.182;2022-08-25T03:03:36;8.00;;;5.70;;
37477;SDS011;23334;54.316;10.182;2022-08-25T03:06:04;7.40;;;6.20;;
37477;SDS011;23334;54.316;10.182;2022-08-25T03:08:33;8.07;;;5.50;;
37477;SDS011;23334;54.316;10.182;2022-08-25T03:10:59;10.73;;;5.60;;
37477;SDS011;23334;54.316;10.182;2022-08-25T03:13:24;6.00;;;5.40;;
37477;SDS011;23334;54.316;10.182;2022-08-25T03:15:50;9.00;;;5.10;;
37477;SDS011;23334;54.316;10.182;2022-08-25T03:18:16;8.97;;;5.67;;
37477;SDS011;23334;54.316;10.182;2022-08-25T03:20:41;6.17;;;5.17;;
37477;SDS011;23334;54.316;10.182;2022-08-25T03:23:08;16.53;;;5.83;;
37477;SDS011;23334;54.316;10.182;2022-08-25T03:25:34;8.37;;;5.57;;
37477;SDS011;23334;54.316;10.182;2022-08-25T03:28:18;5.83;;;5.03;;
37477;SDS011;23334;54.316;10.182;2022-08-25T03:30:43;10.43;;;6.10;;
37477;SDS011;23334;54.316;10.182;2022-08-25T03:33:10;6.47;;;5.87;;
37477;SDS011;23334;54.316;10.182;2022-08-25T03:35:35;11.03;;;7.23;;
37477;SDS011;23334;54.316;10.182;2022-08-25T03:38:01;7.60;;;5.90;;
37477;SDS011;23334;54.316;10.182;2022-08-25T03:40:27;9.20;;;6.80;;
37477;SDS011;23334;54.316;10.182;2022-08-25T03:42:53;12.00;;;7.30;;
37477;SDS011;23334;54.316;10.182;2022-08-25T03:45:21;10.03;;;6.80;;
37477;SDS011;23334;54.316;10.182;2022-08-25T03:47:48;8.37;;;6.60;;
37477;SDS011;23334;54.316;10.182;2022-08-25T03:50:14;10.97;;;7.80;;
37477;SDS011;23334;54.316;10.182;2022-08-25T03:52:41;13.23;;;8.43;;
37477;SDS011;23334;54.316;10.182;2022-08-25T03:55:08;12.63;;;7.10;;
37477;SDS011;23334;54.316;10.182;2022-08-25T03:57:35;14.37;;;8.30;;
37477;SDS011;23334;54.316;10.182;2022-08-25T04:00:00;12.17;;;7.43;;
37477;SDS011;23334;54.316;10.182;2022-08-25T04:02:27;9.93;;;7.87;;
37477;SDS011;23334;54.316;10.182;2022-08-25T04:04:53;8.80;;;7.27;;
37477;SDS011;23334;54.316;10.182;2022-08-25T04:07:19;14.90;;;7.13;;
37477;SDS011;23334;54.316;10.182;2022-08-25T04:09:44;20.20;;;7.20;;
37477;SDS011;23334;54.316;10.182;2022-08-25T04:12:10;10.37;;;6.97;;
37477;SDS011;23334;54.316;10.182;2022-08-25T04:14:36;11.00;;;7.93;;
37477;SDS011;23334;54.316;10.182;2022-08-25T04:17:02;21.50;;;7.93;;
37477;SDS011;23334;54.316;10.182;2022-08-25T04:19:28;12.57;;;7.57;;
37477;SDS011;23334;54.316;10.182;2022-08-25T04:21:53;11.73;;;7.83;;
37477;SDS011;23334;54.316;10.182;2022-08-25T04:24:19;13.03;;;8.23;;
37477;SDS011;23334;54.316;10.182;2022-08-25T04:26:47;12.17;;;8.00;;
37477;SDS011;23334;54.316;10.182;2022-08-25T04:29:15;14.67;;;7.50;;
37477;SDS011;23334;54.316;10.182;2022-08-25T04:31:44;12.60;;;8.13;;
37477;SDS011;23334;54.316;10.182;2022-08-25T04:34:11;13.13;;;7.37;;
37477;SDS011;23334;54.316;10.182;2022-08-25T04:36:37;10.20;;;8.13;;
37477;SDS011;23334;54.316;10.182;2022-08-25T04:39:03;16.90;;;7.70;;
37477;SDS011;23334;54.316;10.182;2022-08-25T04:41:29;14.50;;;8.23;;
37477;SDS011;23334;54.316;10.182;2022-08-25T04:43:55;16.20;;;9.27;;
37477;SDS011;23334;54.316;10.182;2022-08-25T04:46:24;13.97;;;8.53;;
37477;SDS011;23334;54.316;10.182;2022-08-25T04:48:53;14.30;;;9.10;;
37477;SDS011;23334;54.316;10.182;2022-08-25T04:51:21;15.50;;;8.97;;
37477;SDS011;23334;54.316;10.182;2022-08-25T04:53:49;13.83;;;9.20;;
37477;SDS011;23334;54.316;10.182;2022-08-25T04:56:21;13.83;;;9.17;;
37477;SDS011;23334;54.316;10.182;2022-08-25T04:58:51;15.73;;;10.07;;
37477;SDS011;23334;54.316;10.182;2022-08-25T05:01:19;20.77;;;11.57;;
37477;SDS011;23334;54.316;10.182;2022-08-25T05:03:51;24.53;;;12.10;;
37477;SDS011;23334;54.316;10.182;2022-08-25T05:06:23;24.20;;;11.90;;
37477;SDS011;23334;54.316;10.182;2022-08-25T05:08:49;22.17;;;11.30;;
37477;SDS011;23334;54.316;10.182;2022-08-25T05:11:15;21.13;;;12.30;;
37477;SDS011;23334;54.316;10.182;2022-08-25T05:13:47;20.50;;;11.90;;
37477;SDS011;23334;54.316;10.182;2022-08-25T05:16:14;19.90;;;12.23;;
37477;SDS011;23334;54.316;10.182;2022-08-25T05:18:40;18.40;;;11.80;;
37477;SDS011;23334;54.316;10.182;2022-08-25T05:21:11;25.40;;;12.30;;
37477;SDS011;23334;54.316;10.182;2022-08-25T05:23:39;24.93;;;12.67;;
37477;SDS011;23334;54.316;10.182;2022-08-25T05:26:06;18.50;;;12.20;;
37477;SDS011;23334;54.316;10.182;2022-08-25T05:28:34;24.17;;;11.57;;
37477;SDS011;23334;54.316;10.182;2022-08-25T05:31:01;15.00;;;11.40;;
37477;SDS011;23334;54.316;10.182;2022-08-25T05:33:28;16.97;;;10.63;;
37477;SDS011;23334;54.316;10.182;2022-08-25T05:35:54;20.30;;;11.10;;
37477;SDS011;23334;54.316;10.182;2022-08-25T05:38:20;20.20;;;11.53;;
37477;SDS011;23334;54.316;10.182;2022-08-25T05:40:46;27.57;;;10.30;;
37477;SDS011;23334;54.316;10.182;2022-08-25T05:43:12;17.63;;;11.47;;
37477;SDS011;23334;54.316;10.182;2022-08-25T05:45:39;15.93;;;10.83;;
37477;SDS011;23334;54.316;10.182;2022-08-25T05:48:06;17.43;;;10.03;;
37477;SDS011;23334;54.316;10.182;2022-08-25T05:50:32;19.70;;;11.13;;
37477;SDS011;23334;54.316;10.182;2022-08-25T05:52:58;17.97;;;10.27;;
37477;SDS011;23334;54.316;10.182;2022-08-25T05:55:23;11.20;;;9.30;;
37477;SDS011;23334;54.316;10.182;2022-08-25T05:57:49;15.93;;;8.10;;
37477;SDS011;23334;54.316;10.182;2022-08-25T06:00:14;9.67;;;7.93;;
37477;SDS011;23334;54.316;10.182;2022-08-25T06:02:42;19.47;;;8.03;;
37477;SDS011;23334;54.316;10.182;2022-08-25T06:05:09;12.67;;;7.87;;
37477;SDS011;23334;54.316;10.182;2022-08-25T06:07:37;9.23;;;6.80;;
37477;SDS011;23334;54.316;10.182;2022-08-25T06:10:03;12.83;;;6.60;;
37477;SDS011;23334;54.316;10.182;2022-08-25T06:12:31;12.60;;;6.07;;
37477;SDS011;23334;54.316;10.182;2022-08-25T06:15:00;8.83;;;6.13;;
37477;SDS011;23334;54.316;10.182;2022-08-25T06:17:27;5.67;;;5.17;;
37477;SDS011;23334;54.316;10.182;2022-08-25T06:19:52;7.83;;;5.10;;
37477;SDS011;23334;54.316;10.182;2022-08-25T06:22:19;10.20;;;4.00;;
37477;SDS011;23334;54.316;10.182;2022-08-25T06:24:45;10.70;;;4.30;;
37477;SDS011;23334;54.316;10.182;2022-08-25T06:27:10;4.00;;;3.70;;
37477;SDS011;23334;54.316;10.182;2022-08-25T06:29:36;4.73;;;3.80;;
37477;SDS011;23334;54.316;10.182;2022-08-25T06:32:01;5.97;;;3.90;;
37477;SDS011;23334;54.316;10.182;2022-08-25T06:34:27;4.47;;;4.00;;
37477;SDS011;23334;54.316;10.182;2022-08-25T06:36:53;9.13;;;3.80;;
37477;SDS011;23334;54.316;10.182;2022-08-25T06:39:18;6.00;;;3.90;;
37477;SDS011;23334;54.316;10.182;2022-08-25T06:41:44;10.23;;;3.80;;
37477;SDS011;23334;54.316;10.182;2022-08-25T06:44:14;6.90;;;3.83;;
37477;SDS011;23334;54.316;10.182;2022-08-25T06:46:39;5.77;;;3.10;;
37477;SDS011;23334;54.316;10.182;2022-08-25T06:49:05;5.33;;;3.33;;
37477;SDS011;23334;54.316;10.182;2022-08-25T06:51:32;8.90;;;3.20;;
37477;SDS011;23334;54.316;10.182;2022-08-25T06:53:59;5.07;;;3.37;;
37477;SDS011;23334;54.316;10.182;2022-08-25T06:56:25;5.20;;;2.70;;
37477;SDS011;23334;54.316;10.182;2022-08-25T06:58:51;5.07;;;3.43;;
37477;SDS011;23334;54.316;10.182;2022-08-25T07:01:17;6.17;;;3.50;;
37477;SDS011;23334;54.316;10.182;2022-08-25T07:03:47;12.20;;;3.10;;
37477;SDS011;23334;54.316;10.182;2022-08-25T07:06:14;7.67;;;3.00;;
37477;SDS011;23334;54.316;10.182;2022-08-25T07:08:42;4.20;;;2.80;;
37477;SDS011;23334;54.316;10.182;2022-08-25T07:11:08;8.30;;;4.17;;
37477;SDS011;23334;54.316;10.182;2022-08-25T07:13:35;4.10;;;3.70;;
37477;SDS011;23334;54.316;10.182;2022-08-25T07:16:05;11.93;;;3.73;;
37477;SDS011;23334;54.316;10.182;2022-08-25T07:18:35;4.00;;;3.33;;
37477;SDS011;23334;54.316;10.182;2022-08-25T07:21:00;6.70;;;3.20;;
37477;SDS011;23334;54.316;10.182;2022-08-25T07:23:26;5.07;;;3.40;;
37477;SDS011;23334;54.316;10.182;2022-08-25T07:25:52;7.17;;;3.00;;
37477;SDS011;23334;54.316;10.182;2022-08-25T07:28:20;6.10;;;3.60;;
37477;SDS011;23334;54.316;10.182;2022-08-25T07:30:46;3.80;;;3.53;;
37477;SDS011;23334;54.316;10.182;2022-08-25T07:33:14;6.43;;;3.80;;
37477;SDS011;23334;54.316;10.182;2022-08-25T07:35:40;4.80;;;2.93;;
37477;SDS011;23334;54.316;10.182;2022-08-25T07:38:06;11.13;;;3.93;;
37477;SDS011;23334;54.316;10.182;2022-08-25T07:40:33;3.10;;;2.90;;
37477;SDS011;23334;54.316;10.182;2022-08-25T07:43:05;7.23;;;3.50;;
37477;SDS011;23334;54.316;10.182;2022-08-25T07:45:35;4.00;;;3.60;;
37477;SDS011;23334;54.316;10.182;2022-08-25T07:48:07;4.07;;;3.50;;
37477;SDS011;23334;54.316;10.182;2022-08-25T07:50:34;4.23;;;3.80;;
37477;SDS011;23334;54.316;10.182;2022-08-25T07:53:03;3.73;;;3.43;;
37477;SDS011;23334;54.316;10.182;2022-08-25T07:55:29;6.40;;;3.50;;
37477;SDS011;23334;54.316;10.182;2022-08-25T07:57:55;4.63;;;3.60;;
37477;SDS011;23334;54.316;10.182;2022-08-25T08:00:23;7.33;;;4.13;;
37477;SDS011;23334;54.316;10.182;2022-08-25T08:02:52;10.43;;;3.13;;
37477;SDS011;23334;54.316;10.182;2022-08-25T08:05:17;5.90;;;3.53;;
37477;SDS011;23334;54.316;10.182;2022-08-25T08:07:43;3.27;;;2.77;;
37477;SDS011;23334;54.316;10.182;2022-08-25T08:10:10;3.70;;;3.30;;
37477;SDS011;23334;54.316;10.182;2022-08-25T08:12:37;4.53;;;3.00;;
37477;SDS011;23334;54.316;10.182;2022-08-25T08:15:03;3.83;;;2.90;;
37477;SDS011;23334;54.316;10.182;2022-08-25T08:17:30;5.10;;;2.93;;
37477;SDS011;23334;54.316;10.182;2022-08-25T08:19:56;11.23;;;3.43;;
37477;SDS011;23334;54.316;10.182;2022-08-25T08:22:22;3.97;;;3.67;;
37477;SDS011;23334;54.316;10.182;2022-08-25T08:24:47;4.63;;;3.20;;
37477;SDS011;23334;54.316;10.182;2022-08-25T08:27:13;10.40;;;3.50;;
37477;SDS011;23334;54.316;10.182;2022-08-25T08:29:39;5.03;;;3.80;;
37477;SDS011;23334;54.316;10.182;2022-08-25T08:32:08;6.57;;;3.17;;
37477;SDS011;23334;54.316;10.182;2022-08-25T08:34:37;8.63;;;3.30;;
37477;SDS011;23334;54.316;10.182;2022-08-25T08:37:05;8.47;;;3.17;;
37477;SDS011;23334;54.316;10.182;2022-08-25T08:39:31;5.23;;;2.27;;
37477;SDS011;23334;54.316;10.182;2022-08-25T08:42:13;2.90;;;2.67;;
37477;SDS011;23334;54.316;10.182;2022-08-25T08:45:21;4.60;;;2.37;;
37477;SDS011;23334;54.316;10.182;2022-08-25T08:50:42;5.20;;;2.70;;
37477;SDS011;23334;54.316;10.182;2022-08-25T08:53:49;6.87;;;2.83;;
37477;SDS011;23334;54.316;10.182;2022-08-25T08:56:24;4.47;;;2.30;;
37477;SDS011;23334;54.316;10.182;2022-08-25T08:59:02;5.80;;;2.80;;
37477;SDS011;23334;54.316;10.182;2022-08-25T09:01:30;6.90;;;2.50;;
37477;SDS011;23334;54.316;10.182;2022-08-25T09:04:03;3.87;;;2.40;;
37477;SDS011;23334;54.316;10.182;2022-08-25T09:06:38;5.37;;;2.80;;
37477;SDS011;23334;54.316;10.182;2022-08-25T09:09:07;17.33;;;4.00;;
37477;SDS011;23334;54.316;10.182;2022-08-25T09:14:43;4.43;;;3.00;;
37477;SDS011;23334;54.316;10.182;2022-08-25T09:20:32;11.87;;;2.70;;
37477;SDS011;23334;54.316;10.182;2022-08-25T09:23:24;11.17;;;4.30;;
37477;SDS011;23334;54.316;10.182;2022-08-25T09:28:46;5.93;;;2.40;;
37477;SDS011;23334;54.316;10.182;2022-08-25T09:31:21;5.00;;;2.60;;
37477;SDS011;23334;54.316;10.182;2022-08-25T09:33:52;3.60;;;2.27;;
37477;SDS011;23334;54.316;10.182;2022-08-25T09:36:20;3.60;;;2.33;;
37477;SDS011;23334;54.316;10.182;2022-08-25T09:38:47;10.40;;;2.20;;
37477;SDS011;23334;54.316;10.182;2022-08-25T09:41:14;5.30;;;2.43;;
37477;SDS011;23334;54.316;10.182;2022-08-25T09:43:43;9.40;;;2.23;;
37477;SDS011;23334;54.316;10.182;2022-08-25T09:46:22;5.63;;;2.13;;
37477;SDS011;23334;54.316;10.182;2022-08-25T09:48:53;4.03;;;2.20;;
37477;SDS011;23334;54.316;10.182;2022-08-25T09:51:30;5.27;;;2.80;;
37477;SDS011;23334;54.316;10.182;2022-08-25T09:54:05;8.03;;;2.70;;
37477;SDS011;23334;54.316;10.182;2022-08-25T09:56:50;8.17;;;2.27;;
37477;SDS011;23334;54.316;10.182;2022-08-25T10:01:49;3.00;;;2.67;;
37477;SDS011;23334;54.316;10.182;2022-08-25T10:04:24;8.87;;;2.60;;
37477;SDS011;23334;54.316;10.182;2022-08-25T10:06:55;6.00;;;2.63;;
37477;SDS011;23334;54.316;10.182;2022-08-25T10:09:43;9.13;;;3.37;;
37477;SDS011;23334;54.316;10.182;2022-08-25T10:12:15;5.83;;;3.20;;
37477;SDS011;23334;54.316;10.182;2022-08-25T10:14:45;6.27;;;2.80;;
37477;SDS011;23334;54.316;10.182;2022-08-25T10:17:22;5.57;;;2.60;;
37477;SDS011;23334;54.316;10.182;2022-08-25T10:20:16;3.07;;;2.43;;
37477;SDS011;23334;54.316;10.182;2022-08-25T10:22:44;4.70;;;2.67;;
37477;SDS011;23334;54.316;10.182;2022-08-25T10:25:12;3.73;;;2.80;;
37477;SDS011;23334;54.316;10.182;2022-08-25T10:30:58;4.07;;;3.30;;
37477;SDS011;23334;54.316;10.182;2022-08-25T10:36:22;4.97;;;3.33;;
37477;SDS011;23334;54.316;10.182;2022-08-25T10:39:33;5.30;;;2.87;;
37477;SDS011;23334;54.316;10.182;2022-08-25T10:42:27;5.83;;;2.60;;
37477;SDS011;23334;54.316;10.182;2022-08-25T10:48:49;3.87;;;2.80;;
37477;SDS011;23334;54.316;10.182;2022-08-25T10:56:26;6.43;;;4.03;;
37477;SDS011;23334;54.316;10.182;2022-08-25T11:04:36;3.37;;;2.63;;
37477;SDS011;23334;54.316;10.182;2022-08-25T11:07:15;5.53;;;3.30;;
37477;SDS011;23334;54.316;10.182;2022-08-25T11:09:52;5.83;;;3.70;;
37477;SDS011;23334;54.316;10.182;2022-08-25T11:12:44;3.80;;;3.30;;
37477;SDS011;23334;54.316;10.182;2022-08-25T11:15:27;8.87;;;3.50;;
37477;SDS011;23334;54.316;10.182;2022-08-25T11:18:13;4.40;;;3.40;;
37477;SDS011;23334;54.316;10.182;2022-08-25T11:20:42;3.60;;;3.30;;
37477;SDS011;23334;54.316;10.182;2022-08-25T11:23:14;7.27;;;3.00;;
37477;SDS011;23334;54.316;10.182;2022-08-25T11:25:46;6.17;;;3.00;;
37477;SDS011;23334;54.316;10.182;2022-08-25T11:28:29;7.33;;;3.10;;
37477;SDS011;23334;54.316;10.182;2022-08-25T11:31:11;9.00;;;2.90;;
37477;SDS011;23334;54.316;10.182;2022-08-25T11:33:39;8.60;;;2.73;;
37477;SDS011;23334;54.316;10.182;2022-08-25T11:36:10;6.17;;;3.37;;
37477;SDS011;23334;54.316;10.182;2022-08-25T11:39:02;5.70;;;3.60;;
37477;SDS011;23334;54.316;10.182;2022-08-25T11:55:07;4.70;;;3.37;;
37477;SDS011;23334;54.316;10.182;2022-08-25T11:57:43;3.80;;;2.80;;
37477;SDS011;23334;54.316;10.182;2022-08-25T12:00:13;5.97;;;3.67;;
37477;SDS011;23334;54.316;10.182;2022-08-25T12:02:58;3.60;;;3.30;;
37477;SDS011;23334;54.316;10.182;2022-08-25T12:05:50;4.40;;;3.30;;
37477;SDS011;23334;54.316;10.182;2022-08-25T12:08:46;4.77;;;3.33;;
37477;SDS011;23334;54.316;10.182;2022-08-25T12:11:12;3.63;;;3.33;;
37477;SDS011;23334;54.316;10.182;2022-08-25T12:27:08;4.80;;;2.60;;
37477;SDS011;23334;54.316;10.182;2022-08-25T12:38:06;6.03;;;3.70;;
37477;SDS011;23334;54.316;10.182;2022-08-25T12:40:38;7.03;;;3.13;;
37477;SDS011;23334;54.316;10.182;2022-08-25T12:43:25;3.90;;;2.90;;
37477;SDS011;23334;54.316;10.182;2022-08-25T12:52:05;3.40;;;3.10;;
37477;SDS011;23334;54.316;10.182;2022-08-25T12:57:22;6.80;;;3.50;;
37477;SDS011;23334;54.316;10.182;2022-08-25T12:59:56;12.20;;;3.50;;
37477;SDS011;23334;54.316;10.182;2022-08-25T13:10:47;5.20;;;3.60;;
37477;SDS011;23334;54.316;10.182;2022-08-25T13:16:03;5.30;;;3.00;;
37477;SDS011;23334;54.316;10.182;2022-08-25T13:18:33;5.20;;;3.10;;
37477;SDS011;23334;54.316;10.182;2022-08-25T13:21:09;6.77;;;2.77;;
37477;SDS011;23334;54.316;10.182;2022-08-25T13:23:43;6.57;;;2.97;;
37477;SDS011;23334;54.316;10.182;2022-08-25T13:26:16;4.77;;;2.93;;
37477;SDS011;23334;54.316;10.182;2022-08-25T13:28:58;4.70;;;2.50;;
37477;SDS011;23334;54.316;10.182;2022-08-25T13:31:27;5.53;;;2.97;;
37477;SDS011;23334;54.316;10.182;2022-08-25T13:33:58;7.57;;;3.77;;
37477;SDS011;23334;54.316;10.182;2022-08-25T13:36:35;2.87;;;2.67;;
37477;SDS011;23334;54.316;10.182;2022-08-25T13:39:27;6.33;;;2.93;;
37477;SDS011;23334;54.316;10.182;2022-08-25T13:41:54;6.40;;;2.50;;
37477;SDS011;23334;54.316;10.182;2022-08-25T13:44:23;4.50;;;3.00;;
37477;SDS011;23334;54.316;10.182;2022-08-25T13:49:44;5.57;;;3.70;;
37477;SDS011;23334;54.316;10.182;2022-08-25T13:52:17;6.57;;;3.07;;
37477;SDS011;23334;54.316;10.182;2022-08-25T13:54:57;7.67;;;4.23;;
37477;SDS011;23334;54.316;10.182;2022-08-25T13:57:26;3.40;;;3.10;;
37477;SDS011;23334;54.316;10.182;2022-08-25T14:00:00;5.20;;;2.60;;
37477;SDS011;23334;54.316;10.182;2022-08-25T14:02:46;6.57;;;3.27;;
37477;SDS011;23334;54.316;10.182;2022-08-25T14:05:14;4.73;;;2.60;;
37477;SDS011;23334;54.316;10.182;2022-08-25T14:07:51;6.27;;;3.70;;
37477;SDS011;23334;54.316;10.182;2022-08-25T14:13:11;9.67;;;3.80;;
37477;SDS011;23334;54.316;10.182;2022-08-25T14:15:53;5.00;;;2.83;;
37477;SDS011;23334;54.316;10.182;2022-08-25T14:18:29;9.47;;;3.17;;
37477;SDS011;23334;54.316;10.182;2022-08-25T14:20:56;5.10;;;3.30;;
37477;SDS011;23334;54.316;10.182;2022-08-25T14:23:23;6.23;;;2.70;;
37477;SDS011;23334;54.316;10.182;2022-08-25T14:25:51;3.07;;;2.83;;
37477;SDS011;23334;54.316;10.182;2022-08-25T14:28:21;3.90;;;3.20;;
37477;SDS011;23334;54.316;10.182;2022-08-25T14:31:04;9.00;;;3.07;;
37477;SDS011;23334;54.316;10.182;2022-08-25T14:33:34;6.87;;;3.57;;
37477;SDS011;23334;54.316;10.182;2022-08-25T14:36:20;19.50;;;3.83;;
37477;SDS011;23334;54.316;10.182;2022-08-25T14:38:46;9.40;;;3.37;;
37477;SDS011;23334;54.316;10.182;2022-08-25T14:41:13;8.80;;;3.30;;
37477;SDS011;23334;54.316;10.182;2022-08-25T14:43:39;6.80;;;3.07;;
37477;SDS011;23334;54.316;10.182;2022-08-25T14:46:17;15.47;;;4.20;;
37477;SDS011;23334;54.316;10.182;2022-08-25T14:48:48;5.23;;;3.27;;
37477;SDS011;23334;54.316;10.182;2022-08-25T14:51:18;9.43;;;3.37;;
37477;SDS011;23334;54.316;10.182;2022-08-25T14:53:44;11.03;;;3.33;;
37477;SDS011;23334;54.316;10.182;2022-08-25T14:56:10;7.50;;;3.30;;
37477;SDS011;23334;54.316;10.182;2022-08-25T14:58:35;4.10;;;2.77;;
37477;SDS011;23334;54.316;10.182;2022-08-25T15:01:02;7.03;;;3.77;;
37477;SDS011;23334;54.316;10.182;2022-08-25T15:03:30;6.60;;;3.17;;
37477;SDS011;23334;54.316;10.182;2022-08-25T15:06:03;4.50;;;3.30;;
37477;SDS011;23334;54.316;10.182;2022-08-25T15:08:29;5.67;;;3.57;;
37477;SDS011;23334;54.316;10.182;2022-08-25T15:11:14;20.17;;;4.43;;
37477;SDS011;23334;54.316;10.182;2022-08-25T15:13:40;8.23;;;3.33;;
37477;SDS011;23334;54.316;10.182;2022-08-25T15:16:06;12.47;;;3.97;;
37477;SDS011;23334;54.316;10.182;2022-08-25T15:18:32;3.27;;;2.90;;
37477;SDS011;23334;54.316;10.182;2022-08-25T15:20:58;3.57;;;2.90;;
37477;SDS011;23334;54.316;10.182;2022-08-25T15:23:23;3.47;;;2.70;;
37477;SDS011;23334;54.316;10.182;2022-08-25T15:25:49;6.07;;;3.27;;
37477;SDS011;23334;54.316;10.182;2022-08-25T15:28:17;8.07;;;3.80;;
37477;SDS011;23334;54.316;10.182;2022-08-25T15:30:43;9.73;;;3.03;;
37477;SDS011;23334;54.316;10.182;2022-08-25T15:33:09;9.00;;;3.60;;
37477;SDS011;23334;54.316;10.182;2022-08-25T15:35:35;5.00;;;3.30;;
37477;SDS011;23334;54.316;10.182;2022-08-25T15:38:00;4.60;;;3.43;;
37477;SDS011;23334;54.316;10.182;2022-08-25T15:40:26;3.30;;;3.00;;
37477;SDS011;23334;54.316;10.182;2022-08-25T15:42:52;10.30;;;3.73;;
37477;SDS011;23334;54.316;10.182;2022-08-25T15:45:18;4.60;;;3.30;;
37477;SDS011;23334;54.316;10.182;2022-08-25T15:47:44;8.37;;;3.33;;
37477;SDS011;23334;54.316;10.182;2022-08-25T15:50:11;10.33;;;3.30;;
37477;SDS011;23334;54.316;10.182;2022-08-25T15:52:39;5.33;;;2.73;;
37477;SDS011;23334;54.316;10.182;2022-08-25T15:55:04;5.77;;;2.90;;
37477;SDS011;23334;54.316;10.182;2022-08-25T15:57:31;6.83;;;3.50;;
37477;SDS011;23334;54.316;10.182;2022-08-25T15:59:56;2.30;;;2.10;;
37477;SDS011;23334;54.316;10.182;2022-08-25T16:02:22;5.60;;;3.20;;
37477;SDS011;23334;54.316;10.182;2022-08-25T16:04:47;2.90;;;2.70;;
37477;SDS011;23334;54.316;10.182;2022-08-25T16:07:15;8.13;;;3.03;;
37477;SDS011;23334;54.316;10.182;2022-08-25T16:09:41;7.43;;;3.10;;
37477;SDS011;23334;54.316;10.182;2022-08-25T16:12:06;4.90;;;3.73;;
37477;SDS011;23334;54.316;10.182;2022-08-25T16:14:32;3.53;;;2.83;;
37477;SDS011;23334;54.316;10.182;2022-08-25T16:16:57;8.00;;;2.80;;
37477;SDS011;23334;54.316;10.182;2022-08-25T16:19:23;4.77;;;2.80;;
37477;SDS011;23334;54.316;10.182;2022-08-25T16:21:49;5.13;;;3.63;;
37477;SDS011;23334;54.316;10.182;2022-08-25T16:24:15;3.90;;;3.33;;